Skip Navigation Links
NOAA logo - Click to go to the NOAA homepage
NOAA's National Weather Service
Alaska Aviation Weather Unit
  NWS logo - Click to go to the NWS homepage
Left Navbar Graphic     09 AKDT = 17 GMT

   
NOAA is celebrating 200 years of science, service, and stewardship. Visit the NOAA 200th celebration Web site to learn more.
USA.gov is the U.S. Government's official Web portal to all Federal, state and local government Web resources and services.
Facebook
NWS on Facebook

Important Change Regarding the AAWU Web Presence

 

Over the last several months, the AAWU has been working to navigate its webpages to a nationally supported server. Security, as well as other needs, have necessitated the change.  In the process, we have made an effort to enhance the functionality of our website, as well as some of our products. As of June 20, 2017, aawu.arh.noaa.gov will be discontinued. The new AAWU web address is weather.gov/aawu. It is now live and will run in-parallel with the old site until it is discontinued. Please send any feedback or questions regarding the new webpages to nws.ar.aawu.webauthors@noaa.gov.  Thank you for your patience during this time of transition.
AAWU Home :: Display TAF Add Bookmark
TAF CYUB 271439Z 2715/2803 30012KT 2SM -SN BR BKN003 OVC025 TEMPO
     2715/2803 6SM -DZSN SCT005 OVC030 PROB30 2715/2803 1SM -FZDZ BR
     OVC003
    RMK NXT FCST BY 271900Z=

METAR CYUB 271300Z 29010KT 2SM -SN OVC005 00/M00 A2999 RMK SC8 ONE LOOSE SLP158= METAR CYUB 271400Z 30012KT 3SM -SN SCT005 OVC028 00/M00 A3000 RMK SC4SC4 SLP162= SPECI CYUB 271433Z 30012KT 3SM -SN BKN003 OVC026 00/M00 A3001 RMK SC6SC2 SLP163= METAR CYUB 271500Z 29012KT 3SM -SN BKN004 OVC028 00/M00 A3001 RMK SC6SC2 SLP165= METAR CYUB 271600Z 28013KT 3SM -SN OVC004 00/M00 A3003 RMK SC8 SLP170= SPECI CYUB 271649Z 29013KT 8SM OVC004 00/00 A3003 RMK SC8 SLP172= METAR CYUB 271700Z 29014KT 8SM BKN004 OVC028 00/00 A3003 RMK SC7SC1 SLP172=
 Alaska TAF Map

NOAA's National Weather Service
Alaska Aviation Weather Unit
6930 Sand Lake Road
Anchorage, AK 99502-1845
Disclaimer
Credits
Glossary
Privacy Policy
About Us
Career Opportunities
Contact AAWU Internet Services Site last modified: April, 17th 2012